createdAt,value
2017-11-08T00:01:52.607Z,22.00
2017-11-08T00:04:20.154Z,20.20
2017-11-08T00:06:47.650Z,20.73
2017-11-08T00:09:15.186Z,21.50
2017-11-08T00:11:42.691Z,21.90
2017-11-08T00:14:10.230Z,22.13
2017-11-08T00:16:37.737Z,22.07
2017-11-08T00:19:05.274Z,23.30
2017-11-08T00:24:33.961Z,21.43
2017-11-08T00:27:01.463Z,19.63
2017-11-08T00:29:28.990Z,22.87
2017-11-08T00:31:56.486Z,20.77
2017-11-08T00:34:24.015Z,21.03
2017-11-08T00:36:51.605Z,20.57
2017-11-08T00:39:19.151Z,21.73
2017-11-08T00:41:46.647Z,22.30
2017-11-08T00:44:14.146Z,20.83
2017-11-08T00:46:42.450Z,20.47
2017-11-08T00:49:10.710Z,19.77
2017-11-08T00:51:38.245Z,21.73
2017-11-08T00:54:05.747Z,20.90
2017-11-08T00:56:33.274Z,21.80
2017-11-08T00:59:00.770Z,24.00
2017-11-08T01:01:28.303Z,22.33
2017-11-08T01:03:56.570Z,22.20
2017-11-08T01:06:24.114Z,23.23
2017-11-08T01:08:51.614Z,20.73
2017-11-08T01:11:19.110Z,22.97
2017-11-08T01:13:46.651Z,23.00
2017-11-08T01:16:14.154Z,20.87
2017-11-08T01:18:41.694Z,19.67
2017-11-08T01:21:09.194Z,22.03
2017-11-08T01:23:37.490Z,23.53
2017-11-08T01:26:05.754Z,21.97
2017-11-08T01:28:33.255Z,22.83
2017-11-08T01:31:00.787Z,22.90
2017-11-08T01:33:28.287Z,23.00
2017-11-08T01:35:55.814Z,22.00
2017-11-08T01:38:26.319Z,24.47
2017-11-08T01:40:53.858Z,23.63
2017-11-08T01:43:21.362Z,21.70
2017-11-08T01:45:49.691Z,23.43
2017-11-08T01:48:17.195Z,24.77
2017-11-08T01:50:51.308Z,23.27
2017-11-08T01:53:18.807Z,23.43
2017-11-08T01:55:47.215Z,23.53
2017-11-08T01:58:14.720Z,25.13
2017-11-08T02:00:42.277Z,29.53
2017-11-08T02:03:09.779Z,30.80
2017-11-08T02:05:37.275Z,28.20
2017-11-08T02:08:04.813Z,27.27
2017-11-08T02:10:33.079Z,24.27
2017-11-08T02:13:00.611Z,25.30
2017-11-08T02:15:28.871Z,26.10
2017-11-08T02:17:58.234Z,24.20
2017-11-08T02:20:25.726Z,23.20
2017-11-08T02:22:53.286Z,22.70
2017-11-08T02:25:20.787Z,21.57
2017-11-08T02:27:48.346Z,23.50
2017-11-08T02:30:15.842Z,22.70
2017-11-08T02:32:43.340Z,22.53
2017-11-08T02:35:11.642Z,24.60
2017-11-08T02:37:41.802Z,23.53
2017-11-08T02:40:09.343Z,21.70
2017-11-08T02:42:37.611Z,19.40
2017-11-08T02:45:08.043Z,23.43
2017-11-08T02:47:35.550Z,23.60
2017-11-08T02:50:03.099Z,23.27
2017-11-08T02:52:30.594Z,22.47
2017-11-08T02:55:02.897Z,26.67
2017-11-08T02:57:30.395Z,22.20
2017-11-08T02:59:57.942Z,24.60
2017-11-08T03:05:22.469Z,25.13
2017-11-08T03:07:49.966Z,24.37
2017-11-08T03:10:17.519Z,24.73
2017-11-08T03:12:45.018Z,24.30
2017-11-08T03:15:12.515Z,24.13
2017-11-08T03:17:40.051Z,23.60
2017-11-08T03:20:07.564Z,23.67
2017-11-08T03:22:35.091Z,22.50
2017-11-08T03:25:02.586Z,25.03
2017-11-08T03:27:30.110Z,24.20
2017-11-08T03:29:57.598Z,25.50
2017-11-08T03:32:25.146Z,25.00
2017-11-08T03:34:53.406Z,24.93
2017-11-08T03:37:20.950Z,24.50
2017-11-08T03:39:48.442Z,24.17
2017-11-08T03:42:15.938Z,25.23
2017-11-08T03:44:44.226Z,24.37
2017-11-08T03:47:12.482Z,24.80
2017-11-08T03:49:40.010Z,24.80
2017-11-08T03:52:07.508Z,24.33
2017-11-08T03:54:35.047Z,25.30
2017-11-08T03:57:02.542Z,24.80
2017-11-08T03:59:30.074Z,25.60
2017-11-08T04:01:58.330Z,25.83
2017-11-08T04:04:25.851Z,27.37
2017-11-08T04:06:53.352Z,27.10
2017-11-08T04:09:20.902Z,25.30
2017-11-08T04:11:48.393Z,24.83
2017-11-08T04:14:15.923Z,27.40
2017-11-08T04:16:44.186Z,24.00
2017-11-08T04:19:11.731Z,23.13
2017-11-08T04:21:39.221Z,26.17
2017-11-08T04:24:06.714Z,24.30
2017-11-08T04:26:34.242Z,26.00
2017-11-08T04:29:01.747Z,27.10
2017-11-08T04:31:29.926Z,27.57
2017-11-08T04:33:57.430Z,25.23
2017-11-08T04:36:25.722Z,25.10
2017-11-08T04:38:53.973Z,25.07
2017-11-08T04:41:21.501Z,27.83
2017-11-08T04:43:48.998Z,26.47
2017-11-08T04:46:16.542Z,25.33
2017-11-08T04:48:44.038Z,25.23
2017-11-08T04:51:11.521Z,26.00
2017-11-08T04:53:39.045Z,26.43
2017-11-08T04:56:06.543Z,26.87
2017-11-08T04:58:34.074Z,28.47
2017-11-08T05:01:02.333Z,28.43
2017-11-08T05:03:29.955Z,24.40
2017-11-08T05:05:57.442Z,28.93
2017-11-08T05:08:24.973Z,27.30
2017-11-08T05:10:53.237Z,28.00
2017-11-08T05:13:20.765Z,27.33
2017-11-08T05:15:48.268Z,28.53
2017-11-08T05:18:15.789Z,29.40
2017-11-08T05:20:44.062Z,27.20
2017-11-08T05:23:11.603Z,27.27
2017-11-08T05:25:39.126Z,27.87
2017-11-08T05:28:07.381Z,25.80
2017-11-08T05:30:34.923Z,28.87
2017-11-08T05:33:02.422Z,25.90
2017-11-08T05:35:29.946Z,27.70
2017-11-08T05:37:57.443Z,26.57
2017-11-08T05:40:24.966Z,31.50
2017-11-08T05:42:53.221Z,25.33
2017-11-08T05:45:20.749Z,27.57
2017-11-08T05:47:48.241Z,29.97
2017-11-08T05:50:15.761Z,27.80
2017-11-08T05:52:44.022Z,28.40
2017-11-08T05:55:11.567Z,29.80
2017-11-08T05:57:39.066Z,29.97
2017-11-08T06:00:06.562Z,28.30
2017-11-08T06:02:34.859Z,29.07
2017-11-08T06:05:03.113Z,31.10
2017-11-08T06:07:30.637Z,29.07
2017-11-08T06:09:58.130Z,29.50
2017-11-08T06:12:25.657Z,32.10
2017-11-08T06:14:53.918Z,28.17
2017-11-08T06:17:21.442Z,30.37
2017-11-08T06:19:48.944Z,30.10
2017-11-08T06:22:16.471Z,30.87
2017-11-08T06:24:44.735Z,30.80
2017-11-08T06:27:12.287Z,32.60
2017-11-08T06:29:40.552Z,32.60
2017-11-08T06:32:08.046Z,33.33
2017-11-08T06:34:35.574Z,32.60
2017-11-08T06:37:03.073Z,34.37
2017-11-08T06:39:30.601Z,35.50
2017-11-08T06:41:58.101Z,33.73
2017-11-08T06:44:25.625Z,32.90
2017-11-08T06:46:53.123Z,34.87
2017-11-08T06:49:20.980Z,33.23
2017-11-08T06:51:48.479Z,32.50
2017-11-08T06:54:16.007Z,34.37
2017-11-08T06:56:43.497Z,32.60
2017-11-08T06:59:11.806Z,34.20
2017-11-08T07:01:40.066Z,30.40
2017-11-08T07:04:07.567Z,33.43
2017-11-08T07:06:36.801Z,32.50
2017-11-08T07:09:04.298Z,34.20
2017-11-08T07:11:31.828Z,33.70
2017-11-08T07:13:59.321Z,34.90
2017-11-08T07:16:26.846Z,33.97
2017-11-08T07:18:55.160Z,35.97
2017-11-08T07:21:22.694Z,35.77
2017-11-08T07:23:50.213Z,35.30
2017-11-08T07:26:17.759Z,35.57
2017-11-08T07:28:45.258Z,36.37
2017-11-08T07:31:12.755Z,36.17
2017-11-08T07:33:40.799Z,37.43
2017-11-08T07:36:08.296Z,37.00
2017-11-08T07:38:35.838Z,35.60
2017-11-08T07:41:03.341Z,36.70
2017-11-08T07:43:30.870Z,36.37
2017-11-08T07:45:59.134Z,36.53
2017-11-08T07:48:26.665Z,35.03
2017-11-08T07:50:54.182Z,35.73
2017-11-08T07:53:21.713Z,36.37
2017-11-08T07:55:54.755Z,37.20
2017-11-08T07:58:22.285Z,35.57
2017-11-08T08:00:50.551Z,38.57
2017-11-08T08:03:18.192Z,37.57
2017-11-08T08:05:45.701Z,38.60
2017-11-08T08:08:13.204Z,38.90
2017-11-08T08:10:40.754Z,39.23
2017-11-08T08:13:08.249Z,37.07
2017-11-08T08:15:35.746Z,37.40
2017-11-08T08:18:03.275Z,37.57
2017-11-08T08:20:30.806Z,36.10
2017-11-08T08:22:59.067Z,34.40
2017-11-08T08:25:26.613Z,38.93
2017-11-08T08:27:54.138Z,38.40
2017-11-08T08:30:22.439Z,37.30
2017-11-08T08:32:50.699Z,37.80
2017-11-08T08:35:18.250Z,37.27
2017-11-08T08:37:45.741Z,34.77
2017-11-08T08:40:13.238Z,37.70
2017-11-08T08:42:41.535Z,39.30
2017-11-08T08:45:09.046Z,36.03
2017-11-08T08:47:36.570Z,37.60
2017-11-08T08:50:04.066Z,37.73
2017-11-08T08:52:31.594Z,36.40
2017-11-08T08:54:59.091Z,36.37
2017-11-08T08:57:27.386Z,38.37
2017-11-08T08:59:54.883Z,35.10
2017-11-08T09:02:25.290Z,38.40
2017-11-08T09:04:53.554Z,36.53
2017-11-08T09:07:21.101Z,37.47
2017-11-08T09:09:48.589Z,36.30
2017-11-08T09:12:16.082Z,38.20
2017-11-08T09:14:44.378Z,39.33
2017-11-08T09:17:12.653Z,37.17
2017-11-08T09:19:40.182Z,36.30
2017-11-08T09:22:07.679Z,36.87
2017-11-08T09:24:35.228Z,36.90
2017-11-08T09:27:03.499Z,36.70
2017-11-08T09:32:35.054Z,35.47
2017-11-08T09:35:08.285Z,35.57
2017-11-08T09:37:36.549Z,34.43
2017-11-08T09:40:04.450Z,33.37
2017-11-08T09:42:35.638Z,33.37
2017-11-08T09:45:03.143Z,31.90
2017-11-08T09:47:30.674Z,34.03
2017-11-08T09:50:00.965Z,31.13
2017-11-08T09:52:28.497Z,32.77
2017-11-08T09:54:55.997Z,31.70
2017-11-08T09:57:25.496Z,33.87
2017-11-08T09:59:53.056Z,32.60
2017-11-08T10:02:20.533Z,31.77
2017-11-08T10:04:48.030Z,31.90
2017-11-08T10:07:15.600Z,31.30
2017-11-08T10:09:48.830Z,31.93
2017-11-08T10:12:16.362Z,30.60
2017-11-08T10:14:43.857Z,29.90
2017-11-08T10:17:12.169Z,36.53
2017-11-08T10:19:39.662Z,32.07
2017-11-08T10:22:10.021Z,32.50
2017-11-08T10:24:37.521Z,32.33
2017-11-08T10:27:05.050Z,32.03
2017-11-08T10:29:32.552Z,32.83
2017-11-08T10:32:00.122Z,29.90
2017-11-08T10:34:27.624Z,32.17
2017-11-08T10:36:55.165Z,30.37
2017-11-08T10:39:23.727Z,30.40
2017-11-08T10:41:51.228Z,31.50
2017-11-08T10:44:18.727Z,31.07
2017-11-08T10:46:46.225Z,31.10
2017-11-08T10:49:19.469Z,32.83
2017-11-08T10:51:47.755Z,34.07
2017-11-08T10:54:15.307Z,35.47
2017-11-08T10:56:42.817Z,36.07
2017-11-08T10:59:16.729Z,35.83
2017-11-08T11:01:44.278Z,36.80
2017-11-08T11:04:11.786Z,39.43
2017-11-08T11:06:39.327Z,37.33
2017-11-08T11:09:06.822Z,41.33
2017-11-08T11:11:34.384Z,41.03
2017-11-08T11:14:07.474Z,41.07
2017-11-08T11:16:35.011Z,39.60
2017-11-08T11:19:02.515Z,42.10
2017-11-08T11:21:30.078Z,42.07
2017-11-08T11:23:58.503Z,42.20
2017-11-08T11:26:32.522Z,44.23
2017-11-08T11:29:00.022Z,42.83
2017-11-08T11:31:28.284Z,43.50
2017-11-08T11:33:55.818Z,42.50
2017-11-08T11:36:23.319Z,43.17
2017-11-08T11:38:50.851Z,42.50
2017-11-08T11:41:25.087Z,44.07
2017-11-08T11:43:52.625Z,43.00
2017-11-08T11:46:20.899Z,42.70
2017-11-08T11:48:54.235Z,46.87
2017-11-08T11:51:25.585Z,43.77
2017-11-08T11:53:53.888Z,44.03
2017-11-08T11:56:22.154Z,43.87
2017-11-08T11:58:49.686Z,44.27
2017-11-08T12:01:17.191Z,45.40
2017-11-08T12:03:44.728Z,42.07
2017-11-08T12:06:12.218Z,40.40
2017-11-08T12:08:39.771Z,40.67
2017-11-08T12:11:07.271Z,40.70
2017-11-08T12:13:34.770Z,45.80
2017-11-08T12:16:03.071Z,45.30
2017-11-08T12:18:30.578Z,46.33
2017-11-08T12:20:58.143Z,46.80
2017-11-08T12:23:25.643Z,46.40
2017-11-08T12:25:53.176Z,47.13
2017-11-08T12:28:23.202Z,50.73
2017-11-08T12:30:50.713Z,50.77
2017-11-08T12:33:18.214Z,50.40
2017-11-08T12:35:47.431Z,54.07
2017-11-08T12:38:15.699Z,50.50
2017-11-08T12:40:43.234Z,52.63
2017-11-08T12:43:13.552Z,53.73
2017-11-08T12:45:41.115Z,53.47
2017-11-08T12:48:08.612Z,52.83
2017-11-08T12:50:36.118Z,55.20
2017-11-08T12:53:03.647Z,54.03
2017-11-08T12:55:31.151Z,54.53
2017-11-08T12:57:58.684Z,55.13
2017-11-08T13:00:26.183Z,53.23
2017-11-08T13:02:53.739Z,54.17
2017-11-08T13:05:21.239Z,54.17
2017-11-08T13:07:48.752Z,51.53
2017-11-08T13:10:17.050Z,52.63
2017-11-08T13:12:44.563Z,52.40
2017-11-08T13:15:12.094Z,54.43
2017-11-08T13:17:40.365Z,52.80
2017-11-08T13:20:07.895Z,56.37
2017-11-08T13:22:35.403Z,55.03
2017-11-08T13:25:02.944Z,54.57
2017-11-08T13:27:30.443Z,55.97
2017-11-08T13:29:57.978Z,57.30
2017-11-08T13:32:25.482Z,53.60
2017-11-08T13:34:53.011Z,55.20
2017-11-08T13:37:20.523Z,57.63
2017-11-08T13:39:50.913Z,56.27
2017-11-08T13:42:20.090Z,54.43
2017-11-08T13:44:48.358Z,54.83
2017-11-08T13:47:16.743Z,58.90
2017-11-08T13:49:44.242Z,55.30
2017-11-08T13:52:11.774Z,55.67
2017-11-08T13:54:39.274Z,57.83
2017-11-08T13:57:06.806Z,54.10
2017-11-08T13:59:34.321Z,54.80
2017-11-08T14:02:01.865Z,57.17
2017-11-08T14:04:29.363Z,56.57
2017-11-08T14:07:00.811Z,59.13
2017-11-08T14:09:28.303Z,58.37
2017-11-08T14:11:55.846Z,60.07
2017-11-08T14:14:23.347Z,57.87
2017-11-08T14:16:50.852Z,58.50
2017-11-08T14:19:18.386Z,61.87
2017-11-08T14:21:45.887Z,60.60
2017-11-08T14:24:13.426Z,60.43
2017-11-08T14:26:40.930Z,63.10
2017-11-08T14:29:08.458Z,56.33
2017-11-08T14:31:35.961Z,57.90
2017-11-08T14:34:04.282Z,63.67
2017-11-08T14:36:31.782Z,57.97
2017-11-08T14:38:59.338Z,60.17
2017-11-08T14:41:28.786Z,58.37
2017-11-08T14:43:56.286Z,59.17
2017-11-08T14:46:24.582Z,58.00
2017-11-08T14:48:52.841Z,58.93
2017-11-08T14:51:20.382Z,58.60
2017-11-08T14:53:50.697Z,58.40
2017-11-08T14:56:18.227Z,56.47
2017-11-08T14:58:55.644Z,60.60
2017-11-08T15:01:23.186Z,58.37
2017-11-08T15:03:50.708Z,59.57
2017-11-08T15:06:18.242Z,60.97
2017-11-08T15:08:45.743Z,59.60
2017-11-08T15:11:15.867Z,58.63
2017-11-08T15:13:44.138Z,61.30
2017-11-08T15:16:11.642Z,61.30
2017-11-08T15:18:39.182Z,61.23
2017-11-08T15:21:06.683Z,60.93
2017-11-08T15:23:34.223Z,61.00
2017-11-08T15:26:01.736Z,64.83
2017-11-08T15:28:29.271Z,60.90
2017-11-08T15:30:56.767Z,62.60
2017-11-08T15:33:25.118Z,60.67
2017-11-08T15:35:52.615Z,59.30
2017-11-08T15:38:20.169Z,62.97
2017-11-08T15:40:47.671Z,61.50
2017-11-08T15:43:18.767Z,61.83
2017-11-08T15:45:46.267Z,60.50
2017-11-08T15:48:13.820Z,60.47
2017-11-08T15:50:41.336Z,60.83
2017-11-08T15:53:09.603Z,61.03
2017-11-08T15:55:37.240Z,60.47
2017-11-08T15:58:04.754Z,61.20
2017-11-08T16:00:32.295Z,64.23
2017-11-08T16:02:59.799Z,59.73
2017-11-08T16:05:27.335Z,61.97
2017-11-08T16:07:54.836Z,64.27
2017-11-08T16:10:22.363Z,62.27
2017-11-08T16:12:50.778Z,63.90
2017-11-08T16:15:18.276Z,66.23
2017-11-08T16:17:52.686Z,58.20
2017-11-08T16:20:20.196Z,61.43
2017-11-08T16:22:48.505Z,62.13
2017-11-08T16:25:16.037Z,63.20
2017-11-08T16:27:43.582Z,64.40
2017-11-08T16:30:11.084Z,62.97
2017-11-08T16:32:38.732Z,69.17
2017-11-08T16:35:06.243Z,67.27
2017-11-08T16:37:34.516Z,66.37
2017-11-08T16:40:02.052Z,69.47
2017-11-08T16:42:29.550Z,68.47
2017-11-08T16:44:57.082Z,69.03
2017-11-08T16:47:24.583Z,66.20
2017-11-08T16:49:52.118Z,67.07
2017-11-08T16:52:19.619Z,66.53
2017-11-08T16:54:47.159Z,71.33
2017-11-08T16:57:14.666Z,66.47
2017-11-08T16:59:42.202Z,68.53
2017-11-08T17:02:09.711Z,68.30
2017-11-08T17:04:37.261Z,66.27
2017-11-08T17:07:04.766Z,70.03
2017-11-08T17:09:32.320Z,70.30
2017-11-08T17:11:59.819Z,70.83
2017-11-08T17:14:27.324Z,68.43
2017-11-08T17:16:55.621Z,66.50
2017-11-08T17:19:23.127Z,71.50
2017-11-08T17:21:50.661Z,69.63
2017-11-08T17:24:18.159Z,71.83
2017-11-08T17:26:45.694Z,72.60
2017-11-08T17:29:13.960Z,74.40
2017-11-08T17:31:41.491Z,71.37
2017-11-08T17:34:08.997Z,72.27
2017-11-08T17:36:36.544Z,73.07
2017-11-08T17:39:04.058Z,74.70
2017-11-08T17:41:31.598Z,78.70
2017-11-08T17:43:59.108Z,74.10
2017-11-08T17:46:26.660Z,72.60
2017-11-08T17:48:54.168Z,74.77
2017-11-08T17:51:21.678Z,76.90
2017-11-08T17:53:49.215Z,76.90
2017-11-08T17:56:16.731Z,71.23
2017-11-08T17:58:44.275Z,74.67
2017-11-08T18:01:11.784Z,78.30
2017-11-08T18:03:39.315Z,80.53
2017-11-08T18:06:06.815Z,74.67
2017-11-08T18:08:34.349Z,81.07
2017-11-08T18:11:01.864Z,82.30
2017-11-08T18:13:29.388Z,82.20
2017-11-08T18:15:56.923Z,80.40
2017-11-08T18:18:24.435Z,77.77
2017-11-08T18:20:51.973Z,80.07
2017-11-08T18:23:19.479Z,76.70
2017-11-08T18:25:47.015Z,80.37
2017-11-08T18:28:14.520Z,80.63
2017-11-08T18:30:42.065Z,86.40
2017-11-08T18:33:10.331Z,79.63
2017-11-08T18:35:37.827Z,83.07
2017-11-08T18:38:06.118Z,83.47
2017-11-08T18:40:34.393Z,83.40
2017-11-08T18:43:01.935Z,80.40
2017-11-08T18:45:29.433Z,86.77
2017-11-08T18:47:56.964Z,81.43
2017-11-08T18:50:25.231Z,85.37
2017-11-08T18:52:52.772Z,86.87
2017-11-08T18:55:20.285Z,86.13
2017-11-08T18:57:47.849Z,83.53
2017-11-08T19:00:15.347Z,88.50
2017-11-08T19:02:42.848Z,80.97
2017-11-08T19:05:10.394Z,81.07
2017-11-08T19:07:37.896Z,84.20
2017-11-08T19:10:05.445Z,87.87
2017-11-08T19:12:32.947Z,88.27
2017-11-08T19:15:01.246Z,84.53
2017-11-08T19:17:28.766Z,85.63
2017-11-08T19:19:56.305Z,91.47
2017-11-08T19:22:23.811Z,82.47
2017-11-08T19:24:51.359Z,87.70
2017-11-08T19:27:18.871Z,86.83
2017-11-08T19:29:46.575Z,84.37
2017-11-08T19:32:14.866Z,83.23
2017-11-08T19:34:43.141Z,79.53
2017-11-08T19:37:10.707Z,79.57
2017-11-08T19:39:38.207Z,81.27
2017-11-08T19:42:06.523Z,86.43
2017-11-08T19:44:34.032Z,95.83
2017-11-08T19:47:01.570Z,103.07
2017-11-08T19:49:29.088Z,92.07
2017-11-08T19:51:56.630Z,93.70
2017-11-08T19:54:24.130Z,85.63
2017-11-08T19:56:51.690Z,108.97
2017-11-08T19:59:19.186Z,92.47
2017-11-08T20:01:46.690Z,96.73
2017-11-08T20:04:14.227Z,99.43
2017-11-08T20:06:42.490Z,94.80
2017-11-08T20:09:10.041Z,89.77
2017-11-08T20:11:37.556Z,95.57
2017-11-08T20:14:05.110Z,89.67
2017-11-08T20:16:32.616Z,85.87
2017-11-08T20:19:00.563Z,88.40
2017-11-08T20:21:28.084Z,90.83
2017-11-08T20:23:55.654Z,86.40
2017-11-08T20:26:23.162Z,104.50
2017-11-08T20:28:50.666Z,104.80
2017-11-08T20:31:18.203Z,82.97
2017-11-08T20:33:45.712Z,83.40
2017-11-08T20:36:14.019Z,86.10
2017-11-08T20:38:42.287Z,87.40
2017-11-08T20:41:09.831Z,86.67
2017-11-08T20:43:37.338Z,83.27
2017-11-08T20:46:05.651Z,86.80
2017-11-08T20:48:33.163Z,88.83
2017-11-08T20:51:00.723Z,82.17
2017-11-08T20:53:28.226Z,78.17
2017-11-08T20:55:55.731Z,82.40
2017-11-08T20:58:23.275Z,87.57
2017-11-08T21:00:50.779Z,86.67
2017-11-08T21:03:19.249Z,93.57
2017-11-08T21:05:47.522Z,93.77
2017-11-08T21:08:15.063Z,98.23
2017-11-08T21:10:42.571Z,89.87
2017-11-08T21:13:10.127Z,84.07
2017-11-08T21:15:37.635Z,81.57
2017-11-08T21:18:05.160Z,94.03
2017-11-08T21:20:32.710Z,80.20
2017-11-08T21:23:00.234Z,76.77
2017-11-08T21:25:27.767Z,78.10
2017-11-08T21:27:55.308Z,81.57
2017-11-08T21:30:22.847Z,78.00
2017-11-08T21:32:50.350Z,74.97
2017-11-08T21:35:17.895Z,78.53
2017-11-08T21:37:45.401Z,78.13
2017-11-08T21:40:12.938Z,75.20
2017-11-08T21:42:40.442Z,76.23
2017-11-08T21:45:07.986Z,77.13
2017-11-08T21:47:36.256Z,71.67
2017-11-08T21:50:03.789Z,74.53
2017-11-08T21:52:31.328Z,74.53
2017-11-08T21:54:59.591Z,73.63
2017-11-08T21:57:27.130Z,78.30
2017-11-08T21:59:54.631Z,74.60
2017-11-08T22:02:22.182Z,73.53
2017-11-08T22:04:49.682Z,68.70
2017-11-08T22:07:17.192Z,73.20
2017-11-08T22:09:44.718Z,72.77
2017-11-08T22:12:12.210Z,71.27
2017-11-08T22:14:40.509Z,77.53
2017-11-08T22:17:08.774Z,73.00
2017-11-08T22:19:36.339Z,73.67
2017-11-08T22:22:03.835Z,76.40
2017-11-08T22:24:38.223Z,73.00
2017-11-08T22:27:05.723Z,70.27
2017-11-08T22:29:33.223Z,75.10
2017-11-08T22:32:01.518Z,70.77
2017-11-08T22:34:30.599Z,72.93
2017-11-08T22:36:58.134Z,69.57
2017-11-08T22:39:25.658Z,69.47
2017-11-08T22:41:53.219Z,73.30
2017-11-08T22:44:21.495Z,67.87
2017-11-08T22:46:49.023Z,71.83
2017-11-08T22:49:16.556Z,72.40
2017-11-08T22:51:44.124Z,72.17
2017-11-08T22:54:11.623Z,74.67
2017-11-08T22:56:39.171Z,71.30
2017-11-08T22:59:07.474Z,67.57
2017-11-08T23:01:34.978Z,73.17
2017-11-08T23:04:02.519Z,71.80
2017-11-08T23:06:30.786Z,68.97
2017-11-08T23:08:58.317Z,67.83
2017-11-08T23:11:25.814Z,68.77
2017-11-08T23:13:53.347Z,67.77
2017-11-08T23:16:22.663Z,68.10
2017-11-08T23:18:50.196Z,65.67
2017-11-08T23:21:18.462Z,68.77
2017-11-08T23:23:45.995Z,65.63
2017-11-08T23:26:13.508Z,67.33
2017-11-08T23:28:41.054Z,72.27
2017-11-08T23:31:08.546Z,66.73
2017-11-08T23:33:36.046Z,71.23
2017-11-08T23:36:03.585Z,67.47
2017-11-08T23:38:31.098Z,69.27
2017-11-08T23:40:58.636Z,70.23
2017-11-08T23:43:26.138Z,65.87
2017-11-08T23:45:53.691Z,63.60
2017-11-08T23:48:21.193Z,62.10
2017-11-08T23:50:49.606Z,65.40
2017-11-08T23:53:17.135Z,63.90
2017-11-08T23:55:45.399Z,62.03
2017-11-08T23:58:12.931Z,62.13
